sensor_id;sensor_type;location;lat;lon;timestamp;pressure;altitude;pressure_sealevel;temperature;humidity
78745;BME280;68064;53.100;8.824;2024-01-11T00:00:25;103589.41;;;-7.03;92.97
78745;BME280;68064;53.100;8.824;2024-01-11T00:01:26;103588.31;;;-7.00;92.85
78745;BME280;68064;53.100;8.824;2024-01-11T00:02:28;103586.69;;;-7.05;92.76
78745;BME280;68064;53.100;8.824;2024-01-11T00:03:29;103580.09;;;-7.10;92.73
78745;BME280;68064;53.100;8.824;2024-01-11T00:04:30;103584.16;;;-7.10;94.94
78745;BME280;68064;53.100;8.824;2024-01-11T00:05:31;103585.44;;;-7.18;94.69
78745;BME280;68064;53.100;8.824;2024-01-11T00:06:32;103580.22;;;-7.19;94.47
78745;BME280;68064;53.100;8.824;2024-01-11T00:07:33;103579.97;;;-7.21;94.90
78745;BME280;68064;53.100;8.824;2024-01-11T00:08:35;103584.94;;;-7.21;95.30
78745;BME280;68064;53.100;8.824;2024-01-11T00:09:38;103593.13;;;-7.22;95.73
78745;BME280;68064;53.100;8.824;2024-01-11T00:10:39;103593.28;;;-7.26;95.32
78745;BME280;68064;53.100;8.824;2024-01-11T00:11:40;103595.59;;;-7.22;95.89
78745;BME280;68064;53.100;8.824;2024-01-11T00:12:42;103600.63;;;-7.16;97.33
78745;BME280;68064;53.100;8.824;2024-01-11T00:13:43;103606.06;;;-7.13;98.25
78745;BME280;68064;53.100;8.824;2024-01-11T00:14:44;103601.34;;;-7.12;98.11
78745;BME280;68064;53.100;8.824;2024-01-11T00:15:45;103595.19;;;-7.14;97.79
78745;BME280;68064;53.100;8.824;2024-01-11T00:16:46;103602.53;;;-7.04;98.67
78745;BME280;68064;53.100;8.824;2024-01-11T00:17:47;103594.59;;;-7.07;97.59
78745;BME280;68064;53.100;8.824;2024-01-11T00:18:48;103596.88;;;-7.03;98.08
78745;BME280;68064;53.100;8.824;2024-01-11T00:19:49;103590.34;;;-7.03;98.01
78745;BME280;68064;53.100;8.824;2024-01-11T00:20:50;103595.53;;;-7.01;98.21
78745;BME280;68064;53.100;8.824;2024-01-11T00:21:51;103598.94;;;-7.01;98.35
78745;BME280;68064;53.100;8.824;2024-01-11T00:22:52;103602.09;;;-7.02;98.60
78745;BME280;68064;53.100;8.824;2024-01-11T00:23:54;103592.41;;;-6.94;98.66
78745;BME280;68064;53.100;8.824;2024-01-11T00:24:55;103591.94;;;-6.98;99.26
78745;BME280;68064;53.100;8.824;2024-01-11T00:25:56;103588.34;;;-6.94;99.02
78745;BME280;68064;53.100;8.824;2024-01-11T00:26:57;103580.66;;;-6.95;99.01
78745;BME280;68064;53.100;8.824;2024-01-11T00:27:58;103578.88;;;-6.91;98.83
78745;BME280;68064;53.100;8.824;2024-01-11T00:28:59;103585.19;;;-6.93;99.37
78745;BME280;68064;53.100;8.824;2024-01-11T00:30:00;103579.28;;;-6.99;99.48
78745;BME280;68064;53.100;8.824;2024-01-11T00:31:01;103580.84;;;-7.00;99.50
78745;BME280;68064;53.100;8.824;2024-01-11T00:32:02;103585.19;;;-6.93;99.43
78745;BME280;68064;53.100;8.824;2024-01-11T00:33:04;103583.19;;;-6.90;99.30
78745;BME280;68064;53.100;8.824;2024-01-11T00:34:05;103577.47;;;-6.94;99.31
78745;BME280;68064;53.100;8.824;2024-01-11T00:35:06;103578.84;;;-6.97;98.82
78745;BME280;68064;53.100;8.824;2024-01-11T00:36:07;103572.03;;;-6.98;99.10
78745;BME280;68064;53.100;8.824;2024-01-11T00:37:08;103571.66;;;-6.89;98.22
78745;BME280;68064;53.100;8.824;2024-01-11T00:38:09;103571.88;;;-6.88;98.83
78745;BME280;68064;53.100;8.824;2024-01-11T00:39:11;103567.09;;;-6.92;98.21
78745;BME280;68064;53.100;8.824;2024-01-11T00:40:12;103562.81;;;-6.87;98.77
78745;BME280;68064;53.100;8.824;2024-01-11T00:41:14;103563.03;;;-6.86;98.85
78745;BME280;68064;53.100;8.824;2024-01-11T00:42:15;103564.84;;;-6.90;98.58
78745;BME280;68064;53.100;8.824;2024-01-11T00:43:16;103567.63;;;-6.83;99.61
78745;BME280;68064;53.100;8.824;2024-01-11T00:44:17;103573.25;;;-6.84;99.36
78745;BME280;68064;53.100;8.824;2024-01-11T00:45:18;103572.81;;;-6.82;99.82
78745;BME280;68064;53.100;8.824;2024-01-11T00:46:19;103571.50;;;-6.80;99.96
78745;BME280;68064;53.100;8.824;2024-01-11T00:47:20;103569.88;;;-6.79;100.00
78745;BME280;68064;53.100;8.824;2024-01-11T00:48:21;103561.09;;;-6.77;99.92
78745;BME280;68064;53.100;8.824;2024-01-11T00:49:22;103560.47;;;-6.71;99.99
78745;BME280;68064;53.100;8.824;2024-01-11T00:50:23;103563.63;;;-6.66;100.00
78745;BME280;68064;53.100;8.824;2024-01-11T00:51:24;103552.34;;;-6.64;100.00
78745;BME280;68064;53.100;8.824;2024-01-11T00:52:25;103546.66;;;-6.69;100.00
78745;BME280;68064;53.100;8.824;2024-01-11T00:53:26;103548.44;;;-6.73;100.00
78745;BME280;68064;53.100;8.824;2024-01-11T00:54:28;103544.16;;;-6.69;100.00
78745;BME280;68064;53.100;8.824;2024-01-11T00:55:29;103548.69;;;-6.66;100.00
78745;BME280;68064;53.100;8.824;2024-01-11T00:56:30;103549.63;;;-6.60;100.00
78745;BME280;68064;53.100;8.824;2024-01-11T00:57:31;103561.88;;;-6.56;100.00
78745;BME280;68064;53.100;8.824;2024-01-11T00:58:32;103566.41;;;-6.54;100.00
78745;BME280;68064;53.100;8.824;2024-01-11T00:59:33;103565.09;;;-6.52;100.00
78745;BME280;68064;53.100;8.824;2024-01-11T01:00:34;103562.13;;;-6.55;100.00
78745;BME280;68064;53.100;8.824;2024-01-11T01:01:35;103564.84;;;-6.53;100.00
78745;BME280;68064;53.100;8.824;2024-01-11T01:02:36;103558.72;;;-6.55;100.00
78745;BME280;68064;53.100;8.824;2024-01-11T01:03:38;103552.38;;;-6.59;100.00
78745;BME280;68064;53.100;8.824;2024-01-11T01:04:41;103555.06;;;-6.57;100.00
78745;BME280;68064;53.100;8.824;2024-01-11T01:05:42;103556.47;;;-6.54;99.86
78745;BME280;68064;53.100;8.824;2024-01-11T01:06:43;103553.97;;;-6.54;99.43
78745;BME280;68064;53.100;8.824;2024-01-11T01:07:44;103549.91;;;-6.53;99.07
78745;BME280;68064;53.100;8.824;2024-01-11T01:08:45;103545.63;;;-6.54;99.71
78745;BME280;68064;53.100;8.824;2024-01-11T01:09:47;103547.41;;;-6.53;99.74
78745;BME280;68064;53.100;8.824;2024-01-11T01:10:48;103548.31;;;-6.53;100.00
78745;BME280;68064;53.100;8.824;2024-01-11T01:11:49;103549.69;;;-6.49;100.00
78745;BME280;68064;53.100;8.824;2024-01-11T01:12:50;103550.38;;;-6.50;100.00
78745;BME280;68064;53.100;8.824;2024-01-11T01:13:52;103549.03;;;-6.48;100.00
78745;BME280;68064;53.100;8.824;2024-01-11T01:14:53;103553.56;;;-6.46;99.09
78745;BME280;68064;53.100;8.824;2024-01-11T01:15:54;103549.50;;;-6.45;99.80
78745;BME280;68064;53.100;8.824;2024-01-11T01:16:55;103550.41;;;-6.45;99.96
78745;BME280;68064;53.100;8.824;2024-01-11T01:17:57;103543.81;;;-6.44;99.61
78745;BME280;68064;53.100;8.824;2024-01-11T01:18:58;103542.50;;;-6.42;99.90
78745;BME280;68064;53.100;8.824;2024-01-11T01:19:59;103538.38;;;-6.47;99.73
78745;BME280;68064;53.100;8.824;2024-01-11T01:21:00;103542.94;;;-6.45;100.00
78745;BME280;68064;53.100;8.824;2024-01-11T01:22:02;103544.75;;;-6.44;100.00
78745;BME280;68064;53.100;8.824;2024-01-11T01:23:03;103535.69;;;-6.43;99.77
78745;BME280;68064;53.100;8.824;2024-01-11T01:24:04;103533.66;;;-6.40;98.90
78745;BME280;68064;53.100;8.824;2024-01-11T01:25:07;103537.53;;;-6.36;98.50
78745;BME280;68064;53.100;8.824;2024-01-11T01:26:08;103528.69;;;-6.40;99.29
78745;BME280;68064;53.100;8.824;2024-01-11T01:27:09;103530.97;;;-6.36;98.59
78745;BME280;68064;53.100;8.824;2024-01-11T01:28:10;103536.88;;;-6.35;98.92
78745;BME280;68064;53.100;8.824;2024-01-11T01:29:11;103532.06;;;-6.39;99.51
78745;BME280;68064;53.100;8.824;2024-01-11T01:30:12;103541.16;;;-6.34;98.91
78745;BME280;68064;53.100;8.824;2024-01-11T01:31:14;103538.00;;;-6.33;99.28
78745;BME280;68064;53.100;8.824;2024-01-11T01:32:15;103540.94;;;-6.36;99.22
78745;BME280;68064;53.100;8.824;2024-01-11T01:33:16;103534.84;;;-6.32;98.05
78745;BME280;68064;53.100;8.824;2024-01-11T01:34:17;103535.31;;;-6.29;97.96
78745;BME280;68064;53.100;8.824;2024-01-11T01:35:18;103534.59;;;-6.28;97.34
78745;BME280;68064;53.100;8.824;2024-01-11T01:36:19;103537.78;;;-6.29;97.97
78745;BME280;68064;53.100;8.824;2024-01-11T01:37:20;103539.38;;;-6.30;97.98
78745;BME280;68064;53.100;8.824;2024-01-11T01:38:21;103537.09;;;-6.28;97.31
78745;BME280;68064;53.100;8.824;2024-01-11T01:39:22;103529.19;;;-6.26;97.26
78745;BME280;68064;53.100;8.824;2024-01-11T01:40:24;103528.28;;;-6.21;96.53
78745;BME280;68064;53.100;8.824;2024-01-11T01:41:25;103522.41;;;-6.21;96.43
78745;BME280;68064;53.100;8.824;2024-01-11T01:42:26;103515.16;;;-6.20;96.17
78745;BME280;68064;53.100;8.824;2024-01-11T01:43:27;103517.22;;;-6.17;95.78
78745;BME280;68064;53.100;8.824;2024-01-11T01:44:28;103510.41;;;-6.18;96.03
78745;BME280;68064;53.100;8.824;2024-01-11T01:45:29;103507.25;;;-6.17;95.80
78745;BME280;68064;53.100;8.824;2024-01-11T01:46:30;103510.44;;;-6.13;95.37
78745;BME280;68064;53.100;8.824;2024-01-11T01:47:32;103503.63;;;-6.14;95.65
78745;BME280;68064;53.100;8.824;2024-01-11T01:48:33;103495.03;;;-6.16;96.17
78745;BME280;68064;53.100;8.824;2024-01-11T01:49:36;103503.16;;;-6.17;96.66
78745;BME280;68064;53.100;8.824;2024-01-11T01:50:38;103499.75;;;-6.17;96.21
78745;BME280;68064;53.100;8.824;2024-01-11T01:51:39;103489.81;;;-6.12;95.54
78745;BME280;68064;53.100;8.824;2024-01-11T01:52:41;103491.63;;;-6.05;95.10
78745;BME280;68064;53.100;8.824;2024-01-11T01:53:43;103495.28;;;-6.03;94.94
78745;BME280;68064;53.100;8.824;2024-01-11T01:54:44;103503.44;;;-5.99;94.22
78745;BME280;68064;53.100;8.824;2024-01-11T01:55:47;103500.94;;;-5.99;94.15
78745;BME280;68064;53.100;8.824;2024-01-11T01:56:48;103506.59;;;-6.00;93.71
78745;BME280;68064;53.100;8.824;2024-01-11T01:57:50;103510.00;;;-5.99;94.15
78745;BME280;68064;53.100;8.824;2024-01-11T01:58:53;103514.78;;;-6.01;94.33
78745;BME280;68064;53.100;8.824;2024-01-11T01:59:55;103513.16;;;-6.06;95.62
78745;BME280;68064;53.100;8.824;2024-01-11T02:00:57;103515.19;;;-6.09;95.66
78745;BME280;68064;53.100;8.824;2024-01-11T02:01:58;103509.53;;;-6.08;95.49
78745;BME280;68064;53.100;8.824;2024-01-11T02:02:59;103513.59;;;-6.08;96.11
78745;BME280;68064;53.100;8.824;2024-01-11T02:04:01;103512.69;;;-6.09;97.05
78745;BME280;68064;53.100;8.824;2024-01-11T02:05:02;103506.13;;;-6.08;96.70
78745;BME280;68064;53.100;8.824;2024-01-11T02:06:05;103513.41;;;-6.10;97.13
78745;BME280;68064;53.100;8.824;2024-01-11T02:07:06;103512.69;;;-6.09;97.26
78745;BME280;68064;53.100;8.824;2024-01-11T02:08:08;103514.06;;;-6.11;98.05
78745;BME280;68064;53.100;8.824;2024-01-11T02:09:13;103523.38;;;-6.10;98.65
78745;BME280;68064;53.100;8.824;2024-01-11T02:10:14;103523.59;;;-6.08;97.88
78745;BME280;68064;53.100;8.824;2024-01-11T02:11:16;103518.59;;;-6.08;98.62
78745;BME280;68064;53.100;8.824;2024-01-11T02:12:18;103520.41;;;-6.07;98.95
78745;BME280;68064;53.100;8.824;2024-01-11T02:13:19;103512.94;;;-6.07;98.89
78745;BME280;68064;53.100;8.824;2024-01-11T02:14:21;103507.97;;;-6.07;98.56
78745;BME280;68064;53.100;8.824;2024-01-11T02:15:22;103507.75;;;-6.03;97.47
78745;BME280;68064;53.100;8.824;2024-01-11T02:16:23;103498.66;;;-6.03;96.83
78745;BME280;68064;53.100;8.824;2024-01-11T02:17:24;103505.91;;;-6.04;96.82
78745;BME280;68064;53.100;8.824;2024-01-11T02:18:25;103504.09;;;-6.00;96.31
78745;BME280;68064;53.100;8.824;2024-01-11T02:19:26;103501.84;;;-5.98;96.32
78745;BME280;68064;53.100;8.824;2024-01-11T02:20:27;103505.94;;;-5.99;97.29
78745;BME280;68064;53.100;8.824;2024-01-11T02:21:29;103513.84;;;-6.01;97.49
78745;BME280;68064;53.100;8.824;2024-01-11T02:22:34;103518.19;;;-6.00;96.87
78745;BME280;68064;53.100;8.824;2024-01-11T02:23:36;103516.56;;;-6.00;96.70
78745;BME280;68064;53.100;8.824;2024-01-11T02:24:41;103516.34;;;-5.96;96.65
78745;BME280;68064;53.100;8.824;2024-01-11T02:25:43;103515.69;;;-5.95;96.67
78745;BME280;68064;53.100;8.824;2024-01-11T02:26:57;103521.34;;;-5.96;96.83
78745;BME280;68064;53.100;8.824;2024-01-11T02:27:59;103515.91;;;-5.93;96.43
78745;BME280;68064;53.100;8.824;2024-01-11T02:29:00;103516.81;;;-5.93;96.20
78745;BME280;68064;53.100;8.824;2024-01-11T02:30:01;103521.34;;;-5.90;95.50
78745;BME280;68064;53.100;8.824;2024-01-11T02:31:02;103522.72;;;-5.92;96.49
78745;BME280;68064;53.100;8.824;2024-01-11T02:32:03;103525.66;;;-5.95;96.76
78745;BME280;68064;53.100;8.824;2024-01-11T02:33:04;103526.56;;;-5.94;96.45
78745;BME280;68064;53.100;8.824;2024-01-11T02:34:05;103522.72;;;-5.98;97.17
78745;BME280;68064;53.100;8.824;2024-01-11T02:35:07;103522.50;;;-5.94;96.55
78745;BME280;68064;53.100;8.824;2024-01-11T02:36:08;103524.09;;;-5.94;97.42
78745;BME280;68064;53.100;8.824;2024-01-11T02:37:09;103527.50;;;-5.94;96.70
78745;BME280;68064;53.100;8.824;2024-01-11T02:38:10;103528.63;;;-5.92;96.61
78745;BME280;68064;53.100;8.824;2024-01-11T02:39:13;103526.56;;;-5.94;97.11
78745;BME280;68064;53.100;8.824;2024-01-11T02:40:15;103531.56;;;-5.94;98.00
78745;BME280;68064;53.100;8.824;2024-01-11T02:41:18;103531.56;;;-5.94;97.77
78745;BME280;68064;53.100;8.824;2024-01-11T02:42:19;103520.47;;;-5.91;97.13
78745;BME280;68064;53.100;8.824;2024-01-11T02:43:20;103518.44;;;-5.87;96.57
78745;BME280;68064;53.100;8.824;2024-01-11T02:44:21;103518.84;;;-5.84;96.36
78745;BME280;68064;53.100;8.824;2024-01-11T02:45:22;103521.81;;;-5.87;96.64
78745;BME280;68064;53.100;8.824;2024-01-11T02:46:23;103521.81;;;-5.87;96.80
78745;BME280;68064;53.100;8.824;2024-01-11T02:47:24;103523.84;;;-5.90;98.03
78745;BME280;68064;53.100;8.824;2024-01-11T02:48:27;103523.84;;;-5.90;98.68
78745;BME280;68064;53.100;8.824;2024-01-11T02:49:28;103522.72;;;-5.86;97.42
78745;BME280;68064;53.100;8.824;2024-01-11T02:50:29;103522.50;;;-5.88;98.27
78745;BME280;68064;53.100;8.824;2024-01-11T02:51:30;103523.41;;;-5.87;97.17
78745;BME280;68064;53.100;8.824;2024-01-11T02:52:31;103519.78;;;-5.84;97.41
78745;BME280;68064;53.100;8.824;2024-01-11T02:53:32;103519.78;;;-5.84;97.67
78745;BME280;68064;53.100;8.824;2024-01-11T02:54:33;103516.16;;;-5.86;97.96
78745;BME280;68064;53.100;8.824;2024-01-11T02:55:36;103516.81;;;-5.87;97.98
78745;BME280;68064;53.100;8.824;2024-01-11T02:56:37;103514.31;;;-5.81;97.00
78745;BME280;68064;53.100;8.824;2024-01-11T02:57:38;103519.78;;;-5.84;97.87
78745;BME280;68064;53.100;8.824;2024-01-11T02:58:39;103511.84;;;-5.87;98.16
78745;BME280;68064;53.100;8.824;2024-01-11T02:59:40;103517.28;;;-5.84;97.71
78745;BME280;68064;53.100;8.824;2024-01-11T03:00:41;103510.47;;;-5.85;98.54
78745;BME280;68064;53.100;8.824;2024-01-11T03:01:42;103517.06;;;-5.85;97.90
78745;BME280;68064;53.100;8.824;2024-01-11T03:02:43;103513.44;;;-5.87;98.34
78745;BME280;68064;53.100;8.824;2024-01-11T03:03:44;103512.53;;;-5.88;98.47
78745;BME280;68064;53.100;8.824;2024-01-11T03:04:45;103513.19;;;-5.89;98.46
78745;BME280;68064;53.100;8.824;2024-01-11T03:05:46;103514.56;;;-5.85;98.29
78745;BME280;68064;53.100;8.824;2024-01-11T03:06:47;103524.50;;;-5.80;97.52
78745;BME280;68064;53.100;8.824;2024-01-11T03:07:48;103528.16;;;-5.78;96.68
78745;BME280;68064;53.100;8.824;2024-01-11T03:08:49;103524.53;;;-5.74;96.68
78745;BME280;68064;53.100;8.824;2024-01-11T03:09:51;103527.72;;;-5.81;97.23
78745;BME280;68064;53.100;8.824;2024-01-11T03:10:53;103521.09;;;-5.80;97.24
78745;BME280;68064;53.100;8.824;2024-01-11T03:11:54;103525.88;;;-5.82;97.72
78745;BME280;68064;53.100;8.824;2024-01-11T03:12:57;103530.88;;;-5.82;97.55
78745;BME280;68064;53.100;8.824;2024-01-11T03:13:58;103532.69;;;-5.81;97.68
78745;BME280;68064;53.100;8.824;2024-01-11T03:14:59;103538.56;;;-5.80;97.79
78745;BME280;68064;53.100;8.824;2024-01-11T03:16:00;103544.00;;;-5.83;98.21
78745;BME280;68064;53.100;8.824;2024-01-11T03:17:01;103549.44;;;-5.80;97.62
78745;BME280;68064;53.100;8.824;2024-01-11T03:18:03;103541.75;;;-5.81;98.26
78745;BME280;68064;53.100;8.824;2024-01-11T03:19:04;103539.94;;;-5.82;98.13
78745;BME280;68064;53.100;8.824;2024-01-11T03:20:06;103532.69;;;-5.81;98.23
78745;BME280;68064;53.100;8.824;2024-01-11T03:21:07;103526.78;;;-5.81;98.16
78745;BME280;68064;53.100;8.824;2024-01-11T03:22:08;103525.88;;;-5.82;97.80
78745;BME280;68064;53.100;8.824;2024-01-11T03:23:09;103524.06;;;-5.83;98.27
78745;BME280;68064;53.100;8.824;2024-01-11T03:24:10;103524.06;;;-5.83;98.07
78745;BME280;68064;53.100;8.824;2024-01-11T03:25:11;103519.78;;;-5.84;97.96
78745;BME280;68064;53.100;8.824;2024-01-11T03:26:14;103516.81;;;-5.81;98.24
78745;BME280;68064;53.100;8.824;2024-01-11T03:27:15;103529.03;;;-5.77;97.49
78745;BME280;68064;53.100;8.824;2024-01-11T03:28:16;103530.41;;;-5.79;97.86
78745;BME280;68064;53.100;8.824;2024-01-11T03:29:17;103528.63;;;-5.75;97.01
78745;BME280;68064;53.100;8.824;2024-01-11T03:30:18;103529.06;;;-5.72;96.76
78745;BME280;68064;53.100;8.824;2024-01-11T03:31:19;103537.69;;;-5.75;97.57
78745;BME280;68064;53.100;8.824;2024-01-11T03:32:20;103528.63;;;-5.75;97.19
78745;BME280;68064;53.100;8.824;2024-01-11T03:33:21;103531.31;;;-5.84;97.46
78745;BME280;68064;53.100;8.824;2024-01-11T03:34:22;103532.44;;;-5.82;97.78
78745;BME280;68064;53.100;8.824;2024-01-11T03:35:23;103528.59;;;-5.80;97.29
78745;BME280;68064;53.100;8.824;2024-01-11T03:36:24;103530.66;;;-5.78;97.48
78745;BME280;68064;53.100;8.824;2024-01-11T03:37:26;103522.72;;;-5.81;97.38
78745;BME280;68064;53.100;8.824;2024-01-11T03:38:27;103520.44;;;-5.79;97.32
78745;BME280;68064;53.100;8.824;2024-01-11T03:39:28;103520.66;;;-5.83;97.68
78745;BME280;68064;53.100;8.824;2024-01-11T03:40:29;103519.56;;;-5.85;97.51
78745;BME280;68064;53.100;8.824;2024-01-11T03:41:31;103523.41;;;-5.87;97.78
78745;BME280;68064;53.100;8.824;2024-01-11T03:42:32;103516.16;;;-5.86;97.70
78745;BME280;68064;53.100;8.824;2024-01-11T03:43:33;103513.19;;;-5.72;97.03
78745;BME280;68064;53.100;8.824;2024-01-11T03:44:36;103515.47;;;-5.68;96.72
78745;BME280;68064;53.100;8.824;2024-01-11T03:45:37;103515.44;;;-5.79;97.30
78745;BME280;68064;53.100;8.824;2024-01-11T03:46:38;103524.06;;;-5.77;96.82
78745;BME280;68064;53.100;8.824;2024-01-11T03:47:39;103514.31;;;-5.76;96.60
78745;BME280;68064;53.100;8.824;2024-01-11T03:48:40;103521.13;;;-5.69;96.30
78745;BME280;68064;53.100;8.824;2024-01-11T03:49:41;103522.06;;;-5.69;96.55
78745;BME280;68064;53.100;8.824;2024-01-11T03:50:42;103517.94;;;-5.74;96.53
78745;BME280;68064;53.100;8.824;2024-01-11T03:51:43;103522.06;;;-5.74;95.98
78745;BME280;68064;53.100;8.824;2024-01-11T03:52:45;103516.56;;;-5.77;96.14
78745;BME280;68064;53.100;8.824;2024-01-11T03:53:46;103515.47;;;-5.91;96.81
78745;BME280;68064;53.100;8.824;2024-01-11T03:54:47;103511.38;;;-5.96;96.51
78745;BME280;68064;53.100;8.824;2024-01-11T03:55:48;103515.69;;;-5.89;96.52
78745;BME280;68064;53.100;8.824;2024-01-11T03:56:50;103522.06;;;-5.85;96.53
78745;BME280;68064;53.100;8.824;2024-01-11T03:57:51;103515.94;;;-5.87;96.75
78745;BME280;68064;53.100;8.824;2024-01-11T03:58:52;103508.44;;;-5.82;96.29
78745;BME280;68064;53.100;8.824;2024-01-11T03:59:53;103502.31;;;-5.90;96.81
78745;BME280;68064;53.100;8.824;2024-01-11T04:00:54;103501.41;;;-5.84;96.75
78745;BME280;68064;53.100;8.824;2024-01-11T04:01:55;103503.69;;;-5.75;96.18
78745;BME280;68064;53.100;8.824;2024-01-11T04:02:57;103511.38;;;-5.90;96.72
78745;BME280;68064;53.100;8.824;2024-01-11T04:03:58;103512.53;;;-5.88;96.37
78745;BME280;68064;53.100;8.824;2024-01-11T04:04:59;103519.06;;;-5.83;96.40
78745;BME280;68064;53.100;8.824;2024-01-11T04:06:00;103516.38;;;-5.84;96.57
78745;BME280;68064;53.100;8.824;2024-01-11T04:07:01;103518.63;;;-5.80;96.51
78745;BME280;68064;53.100;8.824;2024-01-11T04:08:03;103535.41;;;-5.74;95.88
78745;BME280;68064;53.100;8.824;2024-01-11T04:09:04;103536.31;;;-5.84;96.48
78745;BME280;68064;53.100;8.824;2024-01-11T04:10:06;103546.75;;;-5.81;96.16
78745;BME280;68064;53.100;8.824;2024-01-11T04:11:07;103550.38;;;-5.74;96.04
78745;BME280;68064;53.100;8.824;2024-01-11T04:12:09;103548.06;;;-5.83;96.00
78745;BME280;68064;53.100;8.824;2024-01-11T04:13:10;103554.47;;;-5.85;96.13
78745;BME280;68064;53.100;8.824;2024-01-11T04:14:11;103556.25;;;-5.84;96.57
78745;BME280;68064;53.100;8.824;2024-01-11T04:15:13;103569.66;;;-5.78;96.03
78745;BME280;68064;53.100;8.824;2024-01-11T04:16:14;103569.19;;;-5.87;96.32
78745;BME280;68064;53.100;8.824;2024-01-11T04:17:15;103569.84;;;-5.82;95.94
78745;BME280;68064;53.100;8.824;2024-01-11T04:18:16;103574.63;;;-5.84;95.95
78745;BME280;68064;53.100;8.824;2024-01-11T04:19:17;103575.78;;;-5.87;96.01
78745;BME280;68064;53.100;8.824;2024-01-11T04:20:18;103576.66;;;-5.87;96.07
78745;BME280;68064;53.100;8.824;2024-01-11T04:21:22;103566.69;;;-5.81;96.27
78745;BME280;68064;53.100;8.824;2024-01-11T04:22:23;103574.41;;;-5.91;95.95
78745;BME280;68064;53.100;8.824;2024-01-11T04:23:24;103577.59;;;-5.81;96.15
78745;BME280;68064;53.100;8.824;2024-01-11T04:24:25;103584.16;;;-5.81;96.21
78745;BME280;68064;53.100;8.824;2024-01-11T04:25:26;103580.75;;;-5.76;95.44
78745;BME280;68064;53.100;8.824;2024-01-11T04:26:27;103577.81;;;-5.79;95.73
78745;BME280;68064;53.100;8.824;2024-01-11T04:27:30;103581.41;;;-5.83;95.95
78745;BME280;68064;53.100;8.824;2024-01-11T04:28:31;103576.69;;;-5.76;95.60
78745;BME280;68064;53.100;8.824;2024-01-11T04:29:32;103580.28;;;-5.74;95.80
78745;BME280;68064;53.100;8.824;2024-01-11T04:30:33;103576.44;;;-5.77;95.40
78745;BME280;68064;53.100;8.824;2024-01-11T04:31:34;103580.75;;;-5.82;95.96
78745;BME280;68064;53.100;8.824;2024-01-11T04:32:35;103566.25;;;-5.68;95.51
78745;BME280;68064;53.100;8.824;2024-01-11T04:33:40;103562.38;;;-5.77;95.59
78745;BME280;68064;53.100;8.824;2024-01-11T04:34:41;103565.78;;;-5.71;95.16
78745;BME280;68064;53.100;8.824;2024-01-11T04:35:42;103569.22;;;-5.65;95.04
78745;BME280;68064;53.100;8.824;2024-01-11T04:36:43;103567.16;;;-5.73;95.17
78745;BME280;68064;53.100;8.824;2024-01-11T04:37:44;103568.06;;;-5.72;95.57
78745;BME280;68064;53.100;8.824;2024-01-11T04:38:45;103574.44;;;-5.63;94.96
78745;BME280;68064;53.100;8.824;2024-01-11T04:39:46;103575.13;;;-5.59;94.45
78745;BME280;68064;53.100;8.824;2024-01-11T04:40:47;103576.72;;;-5.59;94.53
78745;BME280;68064;53.100;8.824;2024-01-11T04:41:48;103574.63;;;-5.73;94.55
78745;BME280;68064;53.100;8.824;2024-01-11T04:42:50;103566.00;;;-5.80;95.32
78745;BME280;68064;53.100;8.824;2024-01-11T04:43:51;103576.69;;;-5.76;95.60
78745;BME280;68064;53.100;8.824;2024-01-11T04:44:52;103574.63;;;-5.73;95.59
78745;BME280;68064;53.100;8.824;2024-01-11T04:45:53;103578.25;;;-5.76;95.36
78745;BME280;68064;53.100;8.824;2024-01-11T04:46:54;103572.84;;;-5.68;95.47
78745;BME280;68064;53.100;8.824;2024-01-11T04:47:55;103572.81;;;-5.74;95.37
78745;BME280;68064;53.100;8.824;2024-01-11T04:48:56;103573.28;;;-5.71;95.98
78745;BME280;68064;53.100;8.824;2024-01-11T04:49:57;103569.19;;;-5.76;95.54
78745;BME280;68064;53.100;8.824;2024-01-11T04:50:58;103562.41;;;-5.66;95.35
78745;BME280;68064;53.100;8.824;2024-01-11T04:51:59;103558.56;;;-5.64;94.99
78745;BME280;68064;53.100;8.824;2024-01-11T04:53:00;103563.34;;;-5.65;95.39
78745;BME280;68064;53.100;8.824;2024-01-11T04:54:01;103564.25;;;-5.65;95.11
78745;BME280;68064;53.100;8.824;2024-01-11T04:55:05;103561.75;;;-5.65;95.18
78745;BME280;68064;53.100;8.824;2024-01-11T04:56:07;103558.56;;;-5.69;95.51
78745;BME280;68064;53.100;8.824;2024-01-11T04:57:08;103553.31;;;-5.76;96.32
78745;BME280;68064;53.100;8.824;2024-01-11T04:58:10;103548.56;;;-5.75;96.04
78745;BME280;68064;53.100;8.824;2024-01-11T04:59:11;103542.44;;;-5.77;97.06
78745;BME280;68064;53.100;8.824;2024-01-11T05:00:13;103540.63;;;-5.78;96.96
78745;BME280;68064;53.100;8.824;2024-01-11T05:01:15;103545.63;;;-5.78;96.70
78745;BME280;68064;53.100;8.824;2024-01-11T05:02:16;103547.88;;;-5.79;96.76
78745;BME280;68064;53.100;8.824;2024-01-11T05:03:17;103548.13;;;-5.78;97.57
78745;BME280;68064;53.100;8.824;2024-01-11T05:04:18;103539.50;;;-5.74;96.98
78745;BME280;68064;53.100;8.824;2024-01-11T05:05:19;103528.63;;;-5.69;96.67
78745;BME280;68064;53.100;8.824;2024-01-11T05:06:21;103525.91;;;-5.65;96.36
78745;BME280;68064;53.100;8.824;2024-01-11T05:07:23;103528.84;;;-5.68;96.29
78745;BME280;68064;53.100;8.824;2024-01-11T05:08:25;103527.28;;;-5.56;95.69
78745;BME280;68064;53.100;8.824;2024-01-11T05:09:26;103516.38;;;-5.51;95.36
78745;BME280;68064;53.100;8.824;2024-01-11T05:10:27;103514.34;;;-5.54;95.72
78745;BME280;68064;53.100;8.824;2024-01-11T05:11:28;103518.22;;;-5.50;94.72
78745;BME280;68064;53.100;8.824;2024-01-11T05:12:29;103515.72;;;-5.45;94.97
78745;BME280;68064;53.100;8.824;2024-01-11T05:13:31;103505.06;;;-5.44;94.72
78745;BME280;68064;53.100;8.824;2024-01-11T05:14:32;103503.00;;;-5.41;94.09
78745;BME280;68064;53.100;8.824;2024-01-11T05:15:34;103494.63;;;-5.41;94.52
78745;BME280;68064;53.100;8.824;2024-01-11T05:16:35;103494.84;;;-5.40;94.35
78745;BME280;68064;53.100;8.824;2024-01-11T05:17:36;103492.81;;;-5.37;93.65
78745;BME280;68064;53.100;8.824;2024-01-11T05:18:37;103491.22;;;-5.36;93.91
78745;BME280;68064;53.100;8.824;2024-01-11T05:19:38;103476.94;;;-5.37;93.86
78745;BME280;68064;53.100;8.824;2024-01-11T05:20:39;103481.22;;;-5.42;94.10